createdAt,value
2023-05-10T00:02:17.470Z,5.03
2023-05-10T00:07:19.056Z,4.43
2023-05-10T00:12:20.756Z,4.65
2023-05-10T00:17:22.483Z,4.78
2023-05-10T00:22:24.056Z,5.57
2023-05-10T00:27:25.532Z,6.05
2023-05-10T00:32:27.118Z,5.38
2023-05-10T00:37:29.004Z,5.97
2023-05-10T00:42:30.511Z,4.50
2023-05-10T00:47:32.234Z,5.28
2023-05-10T00:52:33.920Z,4.03
2023-05-10T00:57:35.529Z,4.93
2023-05-10T01:02:37.310Z,5.97
2023-05-10T01:07:38.898Z,5.20
2023-05-10T01:12:40.493Z,3.83
2023-05-10T01:17:42.156Z,5.40
2023-05-10T01:22:45.315Z,5.95
2023-05-10T01:27:46.830Z,5.65
2023-05-10T01:32:48.710Z,6.78
2023-05-10T01:37:50.362Z,6.68
2023-05-10T01:42:52.016Z,6.38
2023-05-10T01:47:53.788Z,5.13
2023-05-10T01:52:56.481Z,6.50
2023-05-10T01:57:57.939Z,4.65
2023-05-10T02:02:59.443Z,6.07
2023-05-10T02:08:02.121Z,5.80
2023-05-10T02:13:03.771Z,6.30
2023-05-10T02:18:05.531Z,4.93
2023-05-10T02:23:07.313Z,5.30
2023-05-10T02:28:08.931Z,5.18
2023-05-10T02:33:10.595Z,5.10
2023-05-10T02:38:12.193Z,5.38
2023-05-10T02:43:13.770Z,5.50
2023-05-10T02:48:15.538Z,5.18
2023-05-10T02:53:17.080Z,6.88
2023-05-10T02:58:18.632Z,6.00
2023-05-10T03:03:20.102Z,4.32
2023-05-10T03:08:21.540Z,5.80
2023-05-10T03:13:23.199Z,6.60
2023-05-10T03:18:24.680Z,5.65
2023-05-10T03:23:26.158Z,5.97
2023-05-10T03:28:27.720Z,6.05
2023-05-10T03:33:29.440Z,4.72
2023-05-10T03:38:31.161Z,6.03
2023-05-10T03:43:33.593Z,5.10
2023-05-10T03:48:35.224Z,6.80
2023-05-10T03:53:37.348Z,4.82
2023-05-10T03:58:38.981Z,5.75
2023-05-10T04:03:40.588Z,4.95
2023-05-10T04:08:42.115Z,6.80
2023-05-10T04:13:43.678Z,3.63
2023-05-10T04:18:45.179Z,6.90
2023-05-10T04:23:46.860Z,6.32
2023-05-10T04:28:48.390Z,6.70
2023-05-10T04:33:49.872Z,6.43
2023-05-10T04:38:51.545Z,6.50
2023-05-10T04:43:54.424Z,5.97
2023-05-10T04:48:56.123Z,2.35
2023-05-10T04:54:06.036Z,5.50
2023-05-10T04:59:08.366Z,3.60
2023-05-10T05:04:09.827Z,5.03
2023-05-10T05:09:11.333Z,5.95
2023-05-10T05:14:14.259Z,4.70
2023-05-10T05:19:15.846Z,5.40
2023-05-10T05:24:17.349Z,4.40
2023-05-10T05:29:18.905Z,4.47
2023-05-10T05:34:20.549Z,4.85
2023-05-10T05:39:22.044Z,4.82
2023-05-10T05:44:23.702Z,4.88
2023-05-10T05:49:25.354Z,4.68
2023-05-10T05:54:27.191Z,2.90
2023-05-10T05:59:28.730Z,4.35
2023-05-10T06:04:30.398Z,5.50
2023-05-10T06:09:31.954Z,5.00
2023-05-10T06:14:33.421Z,4.28
2023-05-10T06:19:34.901Z,4.38
2023-05-10T06:24:36.442Z,5.18
2023-05-10T06:29:38.122Z,4.63
2023-05-10T06:34:39.704Z,4.35
2023-05-10T06:39:41.176Z,4.10
2023-05-10T06:44:42.834Z,3.83
2023-05-10T06:49:44.455Z,2.63
2023-05-10T06:54:46.077Z,4.30
2023-05-10T06:59:47.664Z,3.65
2023-05-10T07:04:49.542Z,3.00
2023-05-10T07:09:51.645Z,4.50
2023-05-10T07:14:54.401Z,4.07
2023-05-10T07:19:57.417Z,3.58
2023-05-10T07:25:00.574Z,4.18
2023-05-10T07:30:04.558Z,3.78
2023-05-10T07:35:06.334Z,3.70
2023-05-10T07:40:07.876Z,3.38
2023-05-10T07:45:09.339Z,2.60
2023-05-10T07:50:12.759Z,3.25
2023-05-10T07:55:34.394Z,3.75
2023-05-10T08:00:41.490Z,3.33
2023-05-10T08:05:46.546Z,3.50
2023-05-10T08:10:50.810Z,4.47
2023-05-10T08:15:52.285Z,3.53
2023-05-10T08:20:53.806Z,3.33
2023-05-10T08:25:55.439Z,3.25
2023-05-10T08:30:56.977Z,2.22
2023-05-10T08:35:58.549Z,3.08
2023-05-10T08:41:00.193Z,2.38
2023-05-10T08:46:02.153Z,2.13
2023-05-10T08:51:03.625Z,2.80
2023-05-10T08:56:05.662Z,3.13
2023-05-10T09:01:07.293Z,3.00
2023-05-10T09:06:27.455Z,2.08
2023-05-10T09:11:59.518Z,3.10
2023-05-10T09:17:01.112Z,2.80
2023-05-10T09:22:02.641Z,2.58
2023-05-10T09:27:04.172Z,3.05
2023-05-10T09:32:05.839Z,1.63
2023-05-10T09:37:07.586Z,3.13
2023-05-10T09:42:09.315Z,2.38
2023-05-10T09:47:10.763Z,2.13
2023-05-10T09:52:12.544Z,2.90
2023-05-10T09:57:49.665Z,2.92
2023-05-10T10:03:30.356Z,3.15
2023-05-10T10:08:50.263Z,2.65
2023-05-10T10:14:10.592Z,2.55
2023-05-10T10:19:48.136Z,2.40
2023-05-10T10:25:08.333Z,2.55
2023-05-10T10:30:28.462Z,2.22
2023-05-10T10:35:57.403Z,2.03
2023-05-10T10:41:17.482Z,2.67
2023-05-10T10:46:37.543Z,2.00
2023-05-10T10:51:57.807Z,2.42
2023-05-10T10:57:17.663Z,2.90
2023-05-10T11:02:37.897Z,2.10
2023-05-10T11:07:39.762Z,2.47
2023-05-10T11:12:41.461Z,1.75
2023-05-10T11:17:42.946Z,2.47
2023-05-10T11:22:44.474Z,2.30
2023-05-10T11:27:46.019Z,1.67
2023-05-10T11:32:47.549Z,1.92
2023-05-10T11:37:49.083Z,2.50
2023-05-10T11:42:51.543Z,2.08
2023-05-10T11:47:53.177Z,2.33
2023-05-10T11:52:54.728Z,2.30
2023-05-10T11:57:56.363Z,2.05
2023-05-10T12:02:57.944Z,2.28
2023-05-10T12:08:18.643Z,2.88
2023-05-10T12:13:21.540Z,2.35
2023-05-10T12:18:25.558Z,1.83
2023-05-10T12:23:27.256Z,2.22
2023-05-10T12:28:28.880Z,1.90
2023-05-10T12:33:30.594Z,1.63
2023-05-10T12:38:32.153Z,2.20
2023-05-10T12:43:33.589Z,2.55
2023-05-10T12:48:35.894Z,2.20
2023-05-10T12:53:42.737Z,1.83
2023-05-10T12:59:04.401Z,2.00
2023-05-10T13:04:08.349Z,1.90
2023-05-10T13:09:36.322Z,1.52
2023-05-10T13:14:56.273Z,2.15
2023-05-10T13:20:16.686Z,1.20
2023-05-10T13:25:19.553Z,1.77
2023-05-10T13:30:39.632Z,1.50
2023-05-10T13:35:59.957Z,1.45
2023-05-10T13:41:20.089Z,2.15
2023-05-10T13:46:40.472Z,1.90
2023-05-10T13:52:00.562Z,2.00
2023-05-10T13:57:20.615Z,1.30
2023-05-10T14:02:40.798Z,1.80
2023-05-10T14:08:03.375Z,2.30
2023-05-10T14:13:23.385Z,1.90
2023-05-10T14:18:43.697Z,1.98
2023-05-10T14:23:45.555Z,1.70
2023-05-10T14:28:47.234Z,1.80
2023-05-10T14:33:48.843Z,1.98
2023-05-10T14:38:56.923Z,1.92
2023-05-10T14:44:01.651Z,2.05
2023-05-10T14:49:03.513Z,1.58
2023-05-10T14:54:05.334Z,2.10
2023-05-10T14:59:07.023Z,1.95
2023-05-10T15:04:09.297Z,1.77
2023-05-10T15:09:11.399Z,1.90
2023-05-10T15:14:12.997Z,1.73
2023-05-10T15:19:15.761Z,1.85
2023-05-10T15:24:17.642Z,1.95
2023-05-10T15:29:19.142Z,1.50
2023-05-10T15:34:20.860Z,1.40
2023-05-10T15:39:22.539Z,1.90
2023-05-10T15:44:24.349Z,1.80
2023-05-10T15:49:27.343Z,1.75
2023-05-10T15:54:29.191Z,1.70
2023-05-10T15:59:30.772Z,1.60
2023-05-10T16:04:32.274Z,1.70
2023-05-10T16:09:33.910Z,1.95
2023-05-10T16:14:35.486Z,1.45
2023-05-10T16:19:37.199Z,1.60
2023-05-10T16:24:38.887Z,1.48
2023-05-10T16:29:40.587Z,2.13
2023-05-10T16:34:42.154Z,1.60
2023-05-10T16:39:44.096Z,1.77
2023-05-10T16:44:45.813Z,1.70
2023-05-10T16:49:47.466Z,1.98
2023-05-10T16:54:49.155Z,2.00
2023-05-10T16:59:50.807Z,1.08
2023-05-10T17:04:52.495Z,1.23
2023-05-10T17:09:54.018Z,1.98
2023-05-10T17:14:56.047Z,2.05
2023-05-10T17:19:58.410Z,2.20
2023-05-10T17:25:01.466Z,2.40
2023-05-10T17:30:04.296Z,1.90
2023-05-10T17:35:06.049Z,2.40
2023-05-10T17:40:07.656Z,3.50
2023-05-10T17:45:09.242Z,3.40
2023-05-10T17:50:10.829Z,3.05
2023-05-10T17:55:12.469Z,2.15
2023-05-10T18:00:14.062Z,2.90
2023-05-10T18:05:15.957Z,3.97
2023-05-10T18:10:17.848Z,6.82
2023-05-10T18:15:19.625Z,2.80
2023-05-10T18:20:21.228Z,2.35
2023-05-10T18:25:22.993Z,2.80
2023-05-10T18:30:24.548Z,3.20
2023-05-10T18:35:26.757Z,3.08
2023-05-10T18:40:28.337Z,3.50
2023-05-10T18:45:29.998Z,3.58
2023-05-10T18:50:31.682Z,4.22
2023-05-10T18:55:33.351Z,3.58
2023-05-10T19:00:34.945Z,3.80
2023-05-10T19:05:36.580Z,4.32
2023-05-10T19:10:38.260Z,4.15
2023-05-10T19:15:40.078Z,5.72
2023-05-10T19:20:42.517Z,4.82
2023-05-10T19:25:44.816Z,5.00
2023-05-10T19:30:46.582Z,4.10
2023-05-10T19:35:48.215Z,4.15
2023-05-10T19:40:49.761Z,4.45
2023-05-10T19:45:54.271Z,4.82
2023-05-10T19:50:56.241Z,5.22
2023-05-10T19:55:58.327Z,5.78
2023-05-10T20:00:59.924Z,5.25
2023-05-10T20:06:01.766Z,5.90
2023-05-10T20:11:03.274Z,5.95
2023-05-10T20:16:05.014Z,5.57
2023-05-10T20:21:24.962Z,6.45
2023-05-10T20:26:47.048Z,7.35
2023-05-10T20:32:09.616Z,7.10
2023-05-10T20:37:29.922Z,6.72
2023-05-10T20:42:50.211Z,6.40
2023-05-10T20:48:16.452Z,5.97
2023-05-10T20:53:53.444Z,5.80
2023-05-10T20:58:58.300Z,5.90
2023-05-10T21:04:00.458Z,6.53
2023-05-10T21:09:02.809Z,5.50
2023-05-10T21:14:04.348Z,6.05
2023-05-10T21:19:06.886Z,6.38
2023-05-10T21:24:08.602Z,5.50
2023-05-10T21:29:11.432Z,5.88
2023-05-10T21:34:13.138Z,5.15
2023-05-10T21:39:14.802Z,5.45
2023-05-10T21:44:16.380Z,5.40
2023-05-10T21:49:18.092Z,5.25
2023-05-10T21:54:19.863Z,5.07
2023-05-10T21:59:21.672Z,4.18
2023-05-10T22:04:23.207Z,4.85
2023-05-10T22:09:24.732Z,4.75
2023-05-10T22:14:26.631Z,3.80
2023-05-10T22:19:28.110Z,4.85
2023-05-10T22:24:29.734Z,4.60
2023-05-10T22:29:31.310Z,3.47
2023-05-10T22:34:32.912Z,4.68
2023-05-10T22:39:34.481Z,5.10
2023-05-10T22:44:37.133Z,4.85
2023-05-10T22:49:38.618Z,4.53
2023-05-10T22:54:40.185Z,4.63
2023-05-10T22:59:41.733Z,4.90
2023-05-10T23:04:43.217Z,4.93
2023-05-10T23:09:44.870Z,4.57
2023-05-10T23:14:46.673Z,5.10
2023-05-10T23:19:48.213Z,4.43
2023-05-10T23:24:49.785Z,4.50
2023-05-10T23:29:51.262Z,4.70
2023-05-10T23:34:53.308Z,4.80
2023-05-10T23:39:54.918Z,4.88
2023-05-10T23:44:56.469Z,5.05
2023-05-10T23:49:59.042Z,5.22
2023-05-10T23:55:00.563Z,5.00
